sensor_id;sensor_type;location;lat;lon;timestamp;pressure;altitude;pressure_sealevel;temperature;humidity
2294;BME280;1155;42.644;23.264;2023-10-19T00:00:49;60199.94;;;-140.67;100.00
2294;BME280;1155;42.644;23.264;2023-10-19T00:03:18;60253.19;;;-140.67;100.00
2294;BME280;1155;42.644;23.264;2023-10-19T00:05:46;60224.53;;;-140.67;100.00
2294;BME280;1155;42.644;23.264;2023-10-19T00:08:13;60249.09;;;-140.67;100.00
2294;BME280;1155;42.644;23.264;2023-10-19T00:10:46;60234.75;;;-140.67;100.00
2294;BME280;1155;42.644;23.264;2023-10-19T00:13:15;60242.94;;;-140.67;100.00
2294;BME280;1155;42.644;23.264;2023-10-19T00:15:44;60245.00;;;-140.67;100.00
2294;BME280;1155;42.644;23.264;2023-10-19T00:18:14;60212.22;;;-140.67;100.00
2294;BME280;1155;42.644;23.264;2023-10-19T00:20:52;60228.63;;;-140.67;100.00
2294;BME280;1155;42.644;23.264;2023-10-19T00:23:25;60226.56;;;-140.67;100.00
2294;BME280;1155;42.644;23.264;2023-10-19T00:25:55;60234.75;;;-140.67;100.00
2294;BME280;1155;42.644;23.264;2023-10-19T00:28:22;60220.41;;;-140.67;100.00
2294;BME280;1155;42.644;23.264;2023-10-19T00:30:48;60210.19;;;-140.67;100.00
2294;BME280;1155;42.644;23.264;2023-10-19T00:33:18;60224.53;;;-140.67;100.00
2294;BME280;1155;42.644;23.264;2023-10-19T00:35:45;60245.00;;;-140.67;100.00
2294;BME280;1155;42.644;23.264;2023-10-19T00:38:27;60253.19;;;-140.67;100.00
2294;BME280;1155;42.644;23.264;2023-10-19T00:41:05;60224.53;;;-140.67;100.00
2294;BME280;1155;42.644;23.264;2023-10-19T00:43:33;60210.19;;;-140.67;100.00
2294;BME280;1155;42.644;23.264;2023-10-19T00:46:02;60247.03;;;-140.67;100.00
2294;BME280;1155;42.644;23.264;2023-10-19T00:48:30;60232.72;;;-140.67;100.00
2294;BME280;1155;42.644;23.264;2023-10-19T00:50:58;60202.00;;;-140.67;100.00
2294;BME280;1155;42.644;23.264;2023-10-19T00:53:37;60224.53;;;-140.67;100.00
2294;BME280;1155;42.644;23.264;2023-10-19T00:56:06;60220.41;;;-140.67;100.00
2294;BME280;1155;42.644;23.264;2023-10-19T00:58:35;60224.53;;;-140.67;100.00
2294;BME280;1155;42.644;23.264;2023-10-19T01:01:04;60242.94;;;-140.67;100.00
2294;BME280;1155;42.644;23.264;2023-10-19T01:03:32;60249.09;;;-140.67;100.00
2294;BME280;1155;42.644;23.264;2023-10-19T01:06:04;60195.84;;;-140.67;100.00
2294;BME280;1155;42.644;23.264;2023-10-19T01:08:37;60220.41;;;-140.67;100.00
2294;BME280;1155;42.644;23.264;2023-10-19T01:11:11;60212.22;;;-140.67;100.00
2294;BME280;1155;42.644;23.264;2023-10-19T01:13:41;60224.53;;;-140.67;100.00
2294;BME280;1155;42.644;23.264;2023-10-19T01:16:13;60224.53;;;-140.67;100.00
2294;BME280;1155;42.644;23.264;2023-10-19T01:18:48;60214.28;;;-140.67;100.00
2294;BME280;1155;42.644;23.264;2023-10-19T01:21:20;60232.72;;;-140.67;100.00
2294;BME280;1155;42.644;23.264;2023-10-19T01:23:52;60236.81;;;-140.67;100.00
2294;BME280;1155;42.644;23.264;2023-10-19T01:26:19;60236.81;;;-140.67;100.00
2294;BME280;1155;42.644;23.264;2023-10-19T01:28:51;60218.38;;;-140.67;100.00
2294;BME280;1155;42.644;23.264;2023-10-19T01:31:20;60257.28;;;-140.67;100.00
2294;BME280;1155;42.644;23.264;2023-10-19T01:33:57;60228.63;;;-140.67;100.00
2294;BME280;1155;42.644;23.264;2023-10-19T01:36:24;60253.19;;;-140.67;100.00
2294;BME280;1155;42.644;23.264;2023-10-19T01:38:56;60224.53;;;-140.67;100.00
2294;BME280;1155;42.644;23.264;2023-10-19T01:41:26;60228.63;;;-140.67;100.00
2294;BME280;1155;42.644;23.264;2023-10-19T01:43:56;60218.38;;;-140.67;100.00
2294;BME280;1155;42.644;23.264;2023-10-19T01:46:30;60232.72;;;-140.67;100.00
2294;BME280;1155;42.644;23.264;2023-10-19T01:48:59;60238.84;;;-140.67;100.00
2294;BME280;1155;42.644;23.264;2023-10-19T01:51:29;60216.31;;;-140.67;100.00
2294;BME280;1155;42.644;23.264;2023-10-19T01:53:57;60228.63;;;-140.67;100.00
2294;BME280;1155;42.644;23.264;2023-10-19T01:56:24;60222.47;;;-140.67;100.00
2294;BME280;1155;42.644;23.264;2023-10-19T01:58:50;60224.53;;;-140.67;100.00
2294;BME280;1155;42.644;23.264;2023-10-19T02:01:18;60224.53;;;-140.67;100.00
2294;BME280;1155;42.644;23.264;2023-10-19T02:03:54;60242.94;;;-140.67;100.00
2294;BME280;1155;42.644;23.264;2023-10-19T02:06:24;60224.53;;;-140.67;100.00
2294;BME280;1155;42.644;23.264;2023-10-19T02:08:55;60216.31;;;-140.67;100.00
2294;BME280;1155;42.644;23.264;2023-10-19T02:11:27;60224.53;;;-140.67;100.00
2294;BME280;1155;42.644;23.264;2023-10-19T02:13:56;60236.81;;;-140.67;100.00
2294;BME280;1155;42.644;23.264;2023-10-19T02:16:26;60236.81;;;-140.67;100.00
2294;BME280;1155;42.644;23.264;2023-10-19T02:18:55;60245.00;;;-140.67;100.00
2294;BME280;1155;42.644;23.264;2023-10-19T02:21:21;60238.84;;;-140.67;100.00
2294;BME280;1155;42.644;23.264;2023-10-19T02:23:53;60245.00;;;-140.67;100.00
2294;BME280;1155;42.644;23.264;2023-10-19T02:26:19;60210.19;;;-140.67;100.00
2294;BME280;1155;42.644;23.264;2023-10-19T02:28:49;60224.53;;;-140.67;100.00
2294;BME280;1155;42.644;23.264;2023-10-19T02:31:17;60240.91;;;-140.67;100.00
2294;BME280;1155;42.644;23.264;2023-10-19T02:33:47;60242.94;;;-140.67;100.00
2294;BME280;1155;42.644;23.264;2023-10-19T02:36:17;60226.56;;;-140.67;100.00
2294;BME280;1155;42.644;23.264;2023-10-19T02:38:45;60253.19;;;-140.67;100.00
2294;BME280;1155;42.644;23.264;2023-10-19T02:41:14;60245.00;;;-140.67;100.00
2294;BME280;1155;42.644;23.264;2023-10-19T02:43:43;60240.91;;;-140.67;100.00
2294;BME280;1155;42.644;23.264;2023-10-19T02:46:13;60240.91;;;-140.67;100.00
2294;BME280;1155;42.644;23.264;2023-10-19T02:48:42;60224.53;;;-140.67;100.00
2294;BME280;1155;42.644;23.264;2023-10-19T02:51:10;60220.41;;;-140.67;100.00
2294;BME280;1155;42.644;23.264;2023-10-19T02:53:37;60216.31;;;-140.67;100.00
2294;BME280;1155;42.644;23.264;2023-10-19T02:56:10;60238.84;;;-140.67;100.00
2294;BME280;1155;42.644;23.264;2023-10-19T02:58:40;60234.75;;;-140.67;100.00
2294;BME280;1155;42.644;23.264;2023-10-19T03:01:13;60245.00;;;-140.67;100.00
2294;BME280;1155;42.644;23.264;2023-10-19T03:03:43;60236.81;;;-140.67;100.00
2294;BME280;1155;42.644;23.264;2023-10-19T03:06:09;60238.84;;;-140.67;100.00
2294;BME280;1155;42.644;23.264;2023-10-19T03:08:36;60249.09;;;-140.67;100.00
2294;BME280;1155;42.644;23.264;2023-10-19T03:11:02;60232.72;;;-140.67;100.00
2294;BME280;1155;42.644;23.264;2023-10-19T03:13:30;60249.09;;;-140.67;100.00
2294;BME280;1155;42.644;23.264;2023-10-19T03:15:58;60204.03;;;-140.67;100.00
2294;BME280;1155;42.644;23.264;2023-10-19T03:18:27;60232.72;;;-140.67;100.00
2294;BME280;1155;42.644;23.264;2023-10-19T03:20:54;60245.00;;;-140.67;100.00
2294;BME280;1155;42.644;23.264;2023-10-19T03:23:21;60247.03;;;-140.67;100.00
2294;BME280;1155;42.644;23.264;2023-10-19T03:25:53;60253.19;;;-140.67;100.00
2294;BME280;1155;42.644;23.264;2023-10-19T03:28:37;60257.28;;;-140.67;100.00
2294;BME280;1155;42.644;23.264;2023-10-19T03:31:06;60232.72;;;-140.67;100.00
2294;BME280;1155;42.644;23.264;2023-10-19T03:33:35;60251.13;;;-140.67;100.00
2294;BME280;1155;42.644;23.264;2023-10-19T03:36:06;60226.56;;;-140.67;100.00
2294;BME280;1155;42.644;23.264;2023-10-19T03:38:38;60228.63;;;-140.67;100.00
2294;BME280;1155;42.644;23.264;2023-10-19T03:41:06;60261.38;;;-140.67;100.00
2294;BME280;1155;42.644;23.264;2023-10-19T03:43:34;60230.66;;;-140.67;100.00
2294;BME280;1155;42.644;23.264;2023-10-19T03:46:03;60257.28;;;-140.67;100.00
2294;BME280;1155;42.644;23.264;2023-10-19T03:48:41;60263.44;;;-140.67;100.00
2294;BME280;1155;42.644;23.264;2023-10-19T03:51:08;60226.56;;;-140.67;100.00
2294;BME280;1155;42.644;23.264;2023-10-19T03:53:37;60238.84;;;-140.67;100.00
2294;BME280;1155;42.644;23.264;2023-10-19T03:56:08;60228.63;;;-140.67;100.00
2294;BME280;1155;42.644;23.264;2023-10-19T03:58:36;60236.81;;;-140.67;100.00
2294;BME280;1155;42.644;23.264;2023-10-19T04:01:04;60249.09;;;-140.67;100.00
2294;BME280;1155;42.644;23.264;2023-10-19T04:03:32;60240.91;;;-140.67;100.00
2294;BME280;1155;42.644;23.264;2023-10-19T04:06:01;60251.13;;;-140.67;100.00
2294;BME280;1155;42.644;23.264;2023-10-19T04:08:30;60261.38;;;-140.67;100.00
2294;BME280;1155;42.644;23.264;2023-10-19T04:11:02;60245.00;;;-140.67;100.00
2294;BME280;1155;42.644;23.264;2023-10-19T04:13:37;60228.63;;;-140.67;100.00
2294;BME280;1155;42.644;23.264;2023-10-19T04:16:04;60224.53;;;-140.67;100.00
2294;BME280;1155;42.644;23.264;2023-10-19T04:18:34;60240.91;;;-140.67;100.00
2294;BME280;1155;42.644;23.264;2023-10-19T04:21:04;60257.28;;;-140.67;100.00
2294;BME280;1155;42.644;23.264;2023-10-19T04:23:31;60242.94;;;-140.67;100.00
2294;BME280;1155;42.644;23.264;2023-10-19T04:26:00;60253.19;;;-140.67;100.00
2294;BME280;1155;42.644;23.264;2023-10-19T04:28:31;60236.81;;;-140.67;100.00
2294;BME280;1155;42.644;23.264;2023-10-19T04:31:03;60234.75;;;-140.67;100.00
2294;BME280;1155;42.644;23.264;2023-10-19T04:33:32;60261.38;;;-140.67;100.00
2294;BME280;1155;42.644;23.264;2023-10-19T04:36:02;60265.47;;;-140.67;100.00
2294;BME280;1155;42.644;23.264;2023-10-19T04:38:35;60253.19;;;-140.67;100.00
2294;BME280;1155;42.644;23.264;2023-10-19T04:41:06;60228.63;;;-140.67;100.00
2294;BME280;1155;42.644;23.264;2023-10-19T04:43:34;60245.00;;;-140.67;100.00
2294;BME280;1155;42.644;23.264;2023-10-19T04:46:08;60240.91;;;-140.67;100.00
2294;BME280;1155;42.644;23.264;2023-10-19T04:48:37;60249.09;;;-140.67;100.00
2294;BME280;1155;42.644;23.264;2023-10-19T04:51:06;60238.84;;;-140.67;100.00
2294;BME280;1155;42.644;23.264;2023-10-19T04:53:36;60228.63;;;-140.67;100.00
2294;BME280;1155;42.644;23.264;2023-10-19T04:56:04;60255.22;;;-140.67;100.00
2294;BME280;1155;42.644;23.264;2023-10-19T04:58:31;60234.75;;;-140.67;100.00
2294;BME280;1155;42.644;23.264;2023-10-19T05:00:59;60253.19;;;-140.67;100.00
2294;BME280;1155;42.644;23.264;2023-10-19T05:03:26;60245.00;;;-140.67;100.00
2294;BME280;1155;42.644;23.264;2023-10-19T05:05:54;60265.47;;;-140.67;100.00
2294;BME280;1155;42.644;23.264;2023-10-19T05:08:22;60242.94;;;-140.67;100.00
2294;BME280;1155;42.644;23.264;2023-10-19T05:10:52;60245.00;;;-140.67;100.00
2294;BME280;1155;42.644;23.264;2023-10-19T05:13:20;60249.09;;;-140.67;100.00
2294;BME280;1155;42.644;23.264;2023-10-19T05:15:47;60238.84;;;-140.67;100.00
2294;BME280;1155;42.644;23.264;2023-10-19T05:18:14;60245.00;;;-140.67;100.00
2294;BME280;1155;42.644;23.264;2023-10-19T05:20:40;60253.19;;;-140.67;100.00
2294;BME280;1155;42.644;23.264;2023-10-19T05:23:08;60261.38;;;-140.67;100.00
2294;BME280;1155;42.644;23.264;2023-10-19T05:25:35;60255.22;;;-140.67;100.00
2294;BME280;1155;42.644;23.264;2023-10-19T05:28:05;60263.44;;;-140.67;100.00
2294;BME280;1155;42.644;23.264;2023-10-19T05:30:33;60240.91;;;-140.67;100.00
2294;BME280;1155;42.644;23.264;2023-10-19T05:33:00;60240.91;;;-140.67;100.00
2294;BME280;1155;42.644;23.264;2023-10-19T05:35:29;60259.34;;;-140.67;100.00
2294;BME280;1155;42.644;23.264;2023-10-19T05:37:56;60257.28;;;-140.67;100.00
2294;BME280;1155;42.644;23.264;2023-10-19T05:40:23;60245.00;;;-140.67;100.00
2294;BME280;1155;42.644;23.264;2023-10-19T05:42:55;60261.38;;;-140.67;100.00
2294;BME280;1155;42.644;23.264;2023-10-19T05:45:23;60242.94;;;-140.67;100.00
2294;BME280;1155;42.644;23.264;2023-10-19T05:47:52;60236.81;;;-140.67;100.00
2294;BME280;1155;42.644;23.264;2023-10-19T05:50:19;60249.09;;;-140.67;100.00
2294;BME280;1155;42.644;23.264;2023-10-19T05:52:45;60253.19;;;-140.67;100.00
2294;BME280;1155;42.644;23.264;2023-10-19T05:55:14;60259.34;;;-140.67;100.00
2294;BME280;1155;42.644;23.264;2023-10-19T05:57:41;60275.72;;;-140.67;100.00
2294;BME280;1155;42.644;23.264;2023-10-19T06:00:09;60255.22;;;-140.67;100.00
2294;BME280;1155;42.644;23.264;2023-10-19T06:02:42;60253.19;;;-140.67;100.00
2294;BME280;1155;42.644;23.264;2023-10-19T06:05:10;60245.00;;;-140.67;100.00
2294;BME280;1155;42.644;23.264;2023-10-19T06:07:37;60238.84;;;-140.67;100.00
2294;BME280;1155;42.644;23.264;2023-10-19T06:10:05;60245.00;;;-140.67;100.00
2294;BME280;1155;42.644;23.264;2023-10-19T06:12:32;60255.22;;;-140.67;100.00
2294;BME280;1155;42.644;23.264;2023-10-19T06:15:00;60240.91;;;-140.67;100.00
2294;BME280;1155;42.644;23.264;2023-10-19T06:17:29;60277.75;;;-140.67;100.00
2294;BME280;1155;42.644;23.264;2023-10-19T06:19:57;60253.19;;;-140.67;100.00
2294;BME280;1155;42.644;23.264;2023-10-19T06:22:24;60265.47;;;-140.67;100.00
2294;BME280;1155;42.644;23.264;2023-10-19T06:24:52;60259.34;;;-140.67;100.00
2294;BME280;1155;42.644;23.264;2023-10-19T06:27:19;60240.91;;;-140.67;100.00
2294;BME280;1155;42.644;23.264;2023-10-19T06:29:45;60240.91;;;-140.67;100.00
2294;BME280;1155;42.644;23.264;2023-10-19T06:32:13;60218.38;;;-140.67;100.00
2294;BME280;1155;42.644;23.264;2023-10-19T06:34:39;60261.38;;;-140.67;100.00
2294;BME280;1155;42.644;23.264;2023-10-19T06:37:08;60255.22;;;-140.67;100.00
2294;BME280;1155;42.644;23.264;2023-10-19T06:39:37;60234.75;;;-140.67;100.00
2294;BME280;1155;42.644;23.264;2023-10-19T06:42:07;60247.03;;;-140.67;100.00
2294;BME280;1155;42.644;23.264;2023-10-19T06:44:40;60257.28;;;-140.67;100.00
2294;BME280;1155;42.644;23.264;2023-10-19T06:47:07;60247.03;;;-140.67;100.00
2294;BME280;1155;42.644;23.264;2023-10-19T06:49:34;60253.19;;;-140.67;100.00
2294;BME280;1155;42.644;23.264;2023-10-19T06:52:04;60240.91;;;-140.67;100.00
2294;BME280;1155;42.644;23.264;2023-10-19T06:54:32;60245.00;;;-140.67;100.00
2294;BME280;1155;42.644;23.264;2023-10-19T06:56:59;60228.63;;;-140.67;100.00
2294;BME280;1155;42.644;23.264;2023-10-19T06:59:28;60245.00;;;-140.67;100.00
2294;BME280;1155;42.644;23.264;2023-10-19T07:01:58;60261.38;;;-140.67;100.00
2294;BME280;1155;42.644;23.264;2023-10-19T07:04:26;60267.53;;;-140.67;100.00
2294;BME280;1155;42.644;23.264;2023-10-19T07:06:53;60261.38;;;-140.67;100.00
2294;BME280;1155;42.644;23.264;2023-10-19T07:09:20;60216.31;;;-140.67;100.00
2294;BME280;1155;42.644;23.264;2023-10-19T07:11:49;60234.75;;;-140.67;100.00
2294;BME280;1155;42.644;23.264;2023-10-19T07:14:18;60257.28;;;-140.67;100.00
2294;BME280;1155;42.644;23.264;2023-10-19T07:16:48;60224.53;;;-140.67;100.00
2294;BME280;1155;42.644;23.264;2023-10-19T07:19:15;60249.09;;;-140.67;100.00
2294;BME280;1155;42.644;23.264;2023-10-19T07:21:41;60232.72;;;-140.67;100.00
2294;BME280;1155;42.644;23.264;2023-10-19T07:24:14;60234.75;;;-140.67;100.00
2294;BME280;1155;42.644;23.264;2023-10-19T07:26:44;60236.81;;;-140.67;100.00
2294;BME280;1155;42.644;23.264;2023-10-19T07:29:20;60234.75;;;-140.67;100.00
2294;BME280;1155;42.644;23.264;2023-10-19T07:31:47;60253.19;;;-140.67;100.00
2294;BME280;1155;42.644;23.264;2023-10-19T07:34:14;60240.91;;;-140.67;100.00
2294;BME280;1155;42.644;23.264;2023-10-19T07:36:41;60234.75;;;-140.67;100.00
2294;BME280;1155;42.644;23.264;2023-10-19T07:39:09;60216.31;;;-140.67;100.00
2294;BME280;1155;42.644;23.264;2023-10-19T07:41:39;60220.41;;;-140.67;100.00
2294;BME280;1155;42.644;23.264;2023-10-19T07:44:06;60249.09;;;-140.67;100.00
2294;BME280;1155;42.644;23.264;2023-10-19T07:46:35;60247.03;;;-140.67;100.00
2294;BME280;1155;42.644;23.264;2023-10-19T07:49:02;60232.72;;;-140.67;100.00
2294;BME280;1155;42.644;23.264;2023-10-19T07:51:29;60263.44;;;-140.67;100.00
2294;BME280;1155;42.644;23.264;2023-10-19T07:53:56;60232.72;;;-140.67;100.00
2294;BME280;1155;42.644;23.264;2023-10-19T07:56:23;60230.66;;;-140.67;100.00
2294;BME280;1155;42.644;23.264;2023-10-19T07:58:50;60251.13;;;-140.67;100.00
2294;BME280;1155;42.644;23.264;2023-10-19T08:01:17;60245.00;;;-140.67;100.00
2294;BME280;1155;42.644;23.264;2023-10-19T08:03:45;60238.84;;;-140.67;100.00
2294;BME280;1155;42.644;23.264;2023-10-19T08:06:12;60242.94;;;-140.67;100.00
2294;BME280;1155;42.644;23.264;2023-10-19T08:08:39;60220.41;;;-140.67;100.00
2294;BME280;1155;42.644;23.264;2023-10-19T08:11:07;60245.00;;;-140.67;100.00
2294;BME280;1155;42.644;23.264;2023-10-19T08:13:35;60253.19;;;-140.67;100.00
2294;BME280;1155;42.644;23.264;2023-10-19T08:16:02;60249.09;;;-140.67;100.00
2294;BME280;1155;42.644;23.264;2023-10-19T08:18:28;60249.09;;;-140.67;100.00
2294;BME280;1155;42.644;23.264;2023-10-19T08:20:58;60253.19;;;-140.67;100.00
2294;BME280;1155;42.644;23.264;2023-10-19T08:23:24;60269.56;;;-140.67;94.02
2294;BME280;1155;42.644;23.264;2023-10-19T08:25:53;60240.91;;;-140.67;98.61
2294;BME280;1155;42.644;23.264;2023-10-19T08:28:20;60232.72;;;-140.67;95.17
2294;BME280;1155;42.644;23.264;2023-10-19T08:30:47;60247.03;;;-140.67;86.27
2294;BME280;1155;42.644;23.264;2023-10-19T08:33:27;60281.84;;;-140.67;59.79
2294;BME280;1155;42.644;23.264;2023-10-19T08:35:55;60275.72;;;-140.67;54.89
2294;BME280;1155;42.644;23.264;2023-10-19T08:38:23;60318.72;;;-140.67;45.49
2294;BME280;1155;42.644;23.264;2023-10-19T08:40:50;60300.28;;;-140.67;37.29
2294;BME280;1155;42.644;23.264;2023-10-19T08:43:18;60320.75;;;-140.67;37.08
2294;BME280;1155;42.644;23.264;2023-10-19T08:45:47;60300.28;;;-140.67;39.63
2294;BME280;1155;42.644;23.264;2023-10-19T08:48:14;60314.63;;;-140.67;44.76
2294;BME280;1155;42.644;23.264;2023-10-19T08:50:41;60261.38;;;-140.67;50.73
2294;BME280;1155;42.644;23.264;2023-10-19T08:53:09;60263.44;;;-140.67;56.37
2294;BME280;1155;42.644;23.264;2023-10-19T08:55:40;60277.75;;;-140.67;48.07
2294;BME280;1155;42.644;23.264;2023-10-19T08:58:08;60285.94;;;-140.67;43.34
2294;BME280;1155;42.644;23.264;2023-10-19T09:00:45;60277.75;;;-140.67;40.81
2294;BME280;1155;42.644;23.264;2023-10-19T09:03:19;60277.75;;;-140.67;42.80
2294;BME280;1155;42.644;23.264;2023-10-19T09:05:47;60273.66;;;-140.67;45.94
2294;BME280;1155;42.644;23.264;2023-10-19T09:08:15;60277.75;;;-140.67;41.86
2294;BME280;1155;42.644;23.264;2023-10-19T09:10:45;60326.91;;;-140.67;36.07
2294;BME280;1155;42.644;23.264;2023-10-19T09:13:12;60363.78;;;-140.67;33.15
2294;BME280;1155;42.644;23.264;2023-10-19T09:15:41;60388.34;;;-140.67;30.92
2294;BME280;1155;42.644;23.264;2023-10-19T09:18:15;60396.53;;;-140.67;29.35
2294;BME280;1155;42.644;23.264;2023-10-19T09:20:43;60417.00;;;-140.67;28.53
2294;BME280;1155;42.644;23.264;2023-10-19T09:23:19;60437.50;;;-140.67;27.05
2294;BME280;1155;42.644;23.264;2023-10-19T09:25:48;60445.69;;;-140.67;27.01
2294;BME280;1155;42.644;23.264;2023-10-19T09:28:15;60462.06;;;-140.67;26.50
2294;BME280;1155;42.644;23.264;2023-10-19T09:30:43;60466.16;;;-140.67;25.34
2294;BME280;1155;42.644;23.264;2023-10-19T09:33:10;60457.97;;;-140.67;26.00
2294;BME280;1155;42.644;23.264;2023-10-19T09:35:40;60488.69;;;-140.67;25.24
2294;BME280;1155;42.644;23.264;2023-10-19T09:38:08;60417.00;;;-140.67;26.37
2294;BME280;1155;42.644;23.264;2023-10-19T09:40:36;60392.44;;;-140.67;29.01
2294;BME280;1155;42.644;23.264;2023-10-19T09:43:11;60343.28;;;-140.67;29.07
2294;BME280;1155;42.644;23.264;2023-10-19T09:45:42;60347.38;;;-140.67;30.74
2294;BME280;1155;42.644;23.264;2023-10-19T09:48:16;60394.50;;;-140.67;28.58
2294;BME280;1155;42.644;23.264;2023-10-19T09:50:45;60406.78;;;-140.67;27.67
2294;BME280;1155;42.644;23.264;2023-10-19T09:53:17;60447.72;;;-140.67;27.23
2294;BME280;1155;42.644;23.264;2023-10-19T09:55:48;60419.06;;;-140.67;27.16
2294;BME280;1155;42.644;23.264;2023-10-19T09:58:19;60396.53;;;-140.67;28.37
2294;BME280;1155;42.644;23.264;2023-10-19T10:00:50;60353.53;;;-140.67;31.25
2294;BME280;1155;42.644;23.264;2023-10-19T10:03:42;60281.84;;;-140.67;34.36
2294;BME280;1155;42.644;23.264;2023-10-19T10:06:10;60275.72;;;-140.67;38.70
2294;BME280;1155;42.644;23.264;2023-10-19T10:08:38;60275.72;;;-140.67;40.70
2294;BME280;1155;42.644;23.264;2023-10-19T10:11:22;60247.03;;;-140.67;43.29
2294;BME280;1155;42.644;23.264;2023-10-19T10:13:50;60302.34;;;-140.67;43.13
2294;BME280;1155;42.644;23.264;2023-10-19T10:16:18;60314.63;;;-140.67;34.15
2294;BME280;1155;42.644;23.264;2023-10-19T10:18:47;60451.81;;;-140.67;28.35
2294;BME280;1155;42.644;23.264;2023-10-19T10:21:17;60427.25;;;-140.67;26.45
2294;BME280;1155;42.644;23.264;2023-10-19T10:23:47;60474.34;;;-140.67;25.02
2294;BME280;1155;42.644;23.264;2023-10-19T10:26:15;60478.44;;;-140.67;24.67
2294;BME280;1155;42.644;23.264;2023-10-19T10:28:46;60503.03;;;-140.67;24.15
2294;BME280;1155;42.644;23.264;2023-10-19T10:31:19;60517.34;;;-140.67;23.73
2294;BME280;1155;42.644;23.264;2023-10-19T10:33:48;60539.88;;;-140.67;22.60
2294;BME280;1155;42.644;23.264;2023-10-19T10:36:18;60634.09;;;-140.67;21.77
2294;BME280;1155;42.644;23.264;2023-10-19T10:38:46;60703.72;;;-140.67;20.84
2294;BME280;1155;42.644;23.264;2023-10-19T10:41:20;60617.72;;;-140.67;21.79
2294;BME280;1155;42.644;23.264;2023-10-19T10:43:51;60623.84;;;-140.67;20.41
2294;BME280;1155;42.644;23.264;2023-10-19T10:46:21;60699.63;;;-140.67;20.34
2294;BME280;1155;42.644;23.264;2023-10-19T10:48:49;60777.44;;;-140.67;19.43
2294;BME280;1155;42.644;23.264;2023-10-19T10:51:21;60732.41;;;-140.67;19.50
2294;BME280;1155;42.644;23.264;2023-10-19T10:53:53;60750.81;;;-140.67;19.40
2294;BME280;1155;42.644;23.264;2023-10-19T10:56:21;60781.56;;;-140.67;19.51
2294;BME280;1155;42.644;23.264;2023-10-19T10:58:48;60734.44;;;-140.67;19.18
2294;BME280;1155;42.644;23.264;2023-10-19T11:01:15;60713.97;;;-140.67;19.46
2294;BME280;1155;42.644;23.264;2023-10-19T11:04:07;60771.31;;;-140.67;19.54
2294;BME280;1155;42.644;23.264;2023-10-19T11:06:49;60787.69;;;-140.67;18.76
2294;BME280;1155;42.644;23.264;2023-10-19T11:09:16;60763.13;;;-140.67;18.92
2294;BME280;1155;42.644;23.264;2023-10-19T11:11:47;60787.69;;;-140.67;19.28
2294;BME280;1155;42.644;23.264;2023-10-19T11:14:15;60720.09;;;-140.67;19.59
2294;BME280;1155;42.644;23.264;2023-10-19T11:16:43;60765.16;;;-140.67;18.45
2294;BME280;1155;42.644;23.264;2023-10-19T11:19:11;60681.19;;;-140.67;19.26
2294;BME280;1155;42.644;23.264;2023-10-19T11:21:52;60666.84;;;-140.67;19.36
2294;BME280;1155;42.644;23.264;2023-10-19T11:24:24;60685.28;;;-140.67;20.04
2294;BME280;1155;42.644;23.264;2023-10-19T11:26:52;60781.56;;;-140.67;19.36
2294;BME280;1155;42.644;23.264;2023-10-19T11:29:20;60791.78;;;-140.67;19.07
2294;BME280;1155;42.644;23.264;2023-10-19T11:31:57;60816.38;;;-140.67;18.50
2294;BME280;1155;42.644;23.264;2023-10-19T11:34:27;60861.44;;;-140.67;17.64
2294;BME280;1155;42.644;23.264;2023-10-19T11:36:57;60875.75;;;-140.67;17.53
2294;BME280;1155;42.644;23.264;2023-10-19T11:39:25;60814.31;;;-140.67;17.66
2294;BME280;1155;42.644;23.264;2023-10-19T11:41:52;60855.28;;;-140.67;17.41
2294;BME280;1155;42.644;23.264;2023-10-19T11:44:19;60922.88;;;-140.67;16.85
2294;BME280;1155;42.644;23.264;2023-10-19T11:46:47;60961.78;;;-140.67;16.83
2294;BME280;1155;42.644;23.264;2023-10-19T11:49:14;60994.56;;;-140.67;16.82
2294;BME280;1155;42.644;23.264;2023-10-19T11:51:42;61117.44;;;-140.67;16.21
2294;BME280;1155;42.644;23.264;2023-10-19T11:54:09;61084.66;;;-140.67;16.56
2294;BME280;1155;42.644;23.264;2023-10-19T11:56:36;61039.63;;;-140.67;16.40
2294;BME280;1155;42.644;23.264;2023-10-19T11:59:03;60896.25;;;-140.67;16.79
2294;BME280;1155;42.644;23.264;2023-10-19T12:01:29;60896.25;;;-140.67;17.72
2294;BME280;1155;42.644;23.264;2023-10-19T12:03:56;60851.19;;;-140.67;17.71
2294;BME280;1155;42.644;23.264;2023-10-19T12:06:25;60871.66;;;-140.67;17.70
2294;BME280;1155;42.644;23.264;2023-10-19T12:08:53;60904.44;;;-140.67;17.97
2294;BME280;1155;42.644;23.264;2023-10-19T12:11:24;60892.16;;;-140.67;16.92
2294;BME280;1155;42.644;23.264;2023-10-19T12:13:54;60924.91;;;-140.67;18.01
2294;BME280;1155;42.644;23.264;2023-10-19T12:16:21;60953.59;;;-140.67;17.47
2294;BME280;1155;42.644;23.264;2023-10-19T12:18:49;60935.16;;;-140.67;16.91
2294;BME280;1155;42.644;23.264;2023-10-19T12:21:16;60978.16;;;-140.67;16.81
2294;BME280;1155;42.644;23.264;2023-10-19T12:23:44;60906.47;;;-140.67;17.62
2294;BME280;1155;42.644;23.264;2023-10-19T12:26:17;60941.31;;;-140.67;17.49
2294;BME280;1155;42.644;23.264;2023-10-19T12:28:45;60984.31;;;-140.67;16.71
2294;BME280;1155;42.644;23.264;2023-10-19T12:31:13;60969.97;;;-140.67;17.11
2294;BME280;1155;42.644;23.264;2023-10-19T12:33:40;61049.84;;;-140.67;16.79
2294;BME280;1155;42.644;23.264;2023-10-19T12:36:07;61010.94;;;-140.67;16.34
2294;BME280;1155;42.644;23.264;2023-10-19T12:38:52;61010.94;;;-140.67;16.66
2294;BME280;1155;42.644;23.264;2023-10-19T12:41:21;61043.72;;;-140.67;16.14
2294;BME280;1155;42.644;23.264;2023-10-19T12:43:49;60883.94;;;-140.67;17.22
2294;BME280;1155;42.644;23.264;2023-10-19T12:46:17;60967.94;;;-140.67;16.91
2294;BME280;1155;42.644;23.264;2023-10-19T12:48:44;60929.00;;;-140.67;16.61
2294;BME280;1155;42.644;23.264;2023-10-19T12:51:12;60849.13;;;-140.67;17.65
2294;BME280;1155;42.644;23.264;2023-10-19T12:53:40;60892.16;;;-140.67;17.70